Meteo Giornale » Osservazioni meteo Messico » Mexico City-Licenci

ore: 09:45 - Osservazioni Meteo Mexico City-Licenci
Lat. 19° 26' N Lon. 99° 6' W Alt. 2238 metri s.l.m.

sereno America/Mexico_City

12 °C

Sereno

Temp. 24 Ore

5 °C

25 °C

Est

9.3 Km/h

Dew point 3 °C

Umidità 54 %

Visibilità  10 Km

Il sole sorge alle ore 06:57

Il sole tramonta alle ore 17:59

Data e Ora Cielo e Fenomeni T °C DP °C Um. % Pres. hPa Vis. km Vento km/h
Oggi h: 09:45 sereno Sereno 12 3 54 1033 10 E 9.3
Oggi h: 08:49 sereno Sereno 10 3 61 1033 11 NE 7.4
Oggi h: 08:22 sereno Sereno 9 4 70 1033 11 N 5.5
Oggi h: 07:42 sereno Sereno 7 3 75 1033 13 E/NE 7.4
Oggi h: 06:45 sereno Sereno 5 3 86 1033 11 E/NE 13
Oggi h: 05:46 sereno Sereno 6 3 81 1032 13 E/NE 9.3
Oggi h: 04:42 sereno Sereno 7 3 75 1032 14 NE 7.4
Oggi h: 03:42 sereno Sereno 8 2 65 1032 14 N 5.5
Oggi h: 02:45 sereno Sereno 10 2 57 1032 10 NO 14.8
Oggi h: 01:42 sereno Sereno 11 1 50 1032 10 O/NO 11.1
Oggi h: 00:44 sereno Sereno 12 1 46 1032 10 O/NO 14.8
Ieri h: 23:45 sereno Sereno 12 1 46 1032 10 O/NO 18.5
Ieri h: 23:36 sereno Sereno 12 1 46 1032 10 O 18.5
Ieri h: 22:45 sereno Sereno 14 3 47 1031 10 O/NO 18.5
Ieri h: 21:45 sereno Sereno 15 1 38 1031 10 NO 13
Ieri h: 21:43 sereno Sereno 15 1 38 1031 10 NO 13
Ieri h: 20:45 sereno Sereno 17 -6 20 1030 19 N 13
Ieri h: 19:43 sereno Sereno 18 -6 18 1029 19 N/NE 18.5
Ieri h: 19:42 sereno Sereno 18 -6 18 1029 19 N/NE 18.5
Ieri h: 18:47 sereno Sereno 20 -8 14 1028 19 N/NE 22.2
Ieri h: 18:23 sereno Sereno 21 -8 13 1027 19 N 22.2
Ieri h: 17:53 sereno Sereno 23 -9 11 1027 19 N 25.9
Ieri h: 16:49 sereno Sereno 24 -10 9 1026 10 N/NE 27.8
Ieri h: 15:44 sereno Sereno 25 -12 7 1026 10 N/NE 25.9
Ieri h: 14:47 sereno Sereno 25 -8 10 1026 10 N 25.9
Ieri h: 13:50 sereno Sereno 24 -7 12 1027 10 N 22.2
Ieri h: 13:49 sereno Sereno 24 -7 12 1027 10 N 25.9
Ieri h: 12:54 sereno Sereno 22 -6 14 1028 10 N/NE 16.7
Ieri h: 12:24 sereno Sereno 22 -6 14 1029 10 N 13
Ieri h: 11:47 sereno Sereno 20 -3 20 1030 10 NO 11.1
Ieri h: 11:17 sereno Sereno 19 0 27 1030 8 N 0
Ieri h: 10:45 sereno Sereno 17 1 33 1031 10 N 5.5
Ieri h: 10:22 sereno Sereno 16 1 36 1031 10 E 7.4
Ieri h: 09:47 sereno Sereno 14 1 41 1031 10 E 7.4